Time;durP1;ratioP1;P1;durP2;ratioP2;P2;SDS_P1;SDS_P2;PMS_P1;PMS_P2;Temp;Humidity;BMP_temperature;BMP_pressure;BME280_temperature;BME280_humidity;BME280_pressure;Samples;Min_cycle;Max_cycle;Signal;HPM_P1;HPM_P2
2022/04/24 00:01:30;;;;;;;1.80;1.30;;;22.20;41.60;;;;;;4980650;28;20038;-63
2022/04/24 00:03:58;;;;;;;2.47;1.50;;;22.20;41.60;;;;;;4989120;28;20037;-66
2022/04/24 00:06:24;;;;;;;2.50;1.67;;;22.30;41.70;;;;;;4992489;28;20029;-65
2022/04/24 00:08:50;;;;;;;2.50;1.60;;;22.30;41.70;;;;;;4991200;28;20029;-67
2022/04/24 00:11:17;;;;;;;1.98;1.48;;;22.20;41.60;;;;;;4988475;28;20032;-64
2022/04/24 00:13:43;;;;;;;2.00;1.40;;;22.20;41.60;;;;;;4989731;28;20034;-65
2022/04/24 00:16:12;;;;;;;3.13;1.75;;;22.20;41.60;;;;;;4988130;28;20629;-63
2022/04/24 00:18:38;;;;;;;2.83;1.60;;;22.20;41.60;;;;;;5021468;28;20037;-65
2022/04/24 00:21:06;;;;;;;2.33;1.50;;;22.20;41.60;;;;;;4991071;28;20045;-65
2022/04/24 00:23:32;;;;;;;2.03;1.40;;;22.20;41.60;;;;;;4992061;28;20033;-66
2022/04/24 00:25:59;;;;;;;2.08;1.50;;;22.20;41.60;;;;;;4989064;28;20486;-64
2022/04/24 00:28:24;;;;;;;1.92;1.33;;;22.20;41.60;;;;;;4988975;28;20049;-66
2022/04/24 00:30:50;;;;;;;1.95;1.50;;;22.20;41.60;;;;;;4987005;28;20033;-65
2022/04/24 00:33:16;;;;;;;2.40;1.40;;;22.10;41.50;;;;;;4988564;28;20052;-64
2022/04/24 00:35:41;;;;;;;1.85;1.30;;;22.20;41.60;;;;;;4988811;28;20044;-63
2022/04/24 00:38:07;;;;;;;2.20;1.50;;;22.10;41.50;;;;;;4990627;28;20442;-63
2022/04/24 00:40:33;;;;;;;2.65;1.50;;;22.20;41.60;;;;;;4991067;28;20057;-63
2022/04/24 00:42:58;;;;;;;1.92;1.33;;;22.10;41.50;;;;;;4989908;28;20140;-61
2022/04/24 00:45:24;;;;;;;1.92;1.42;;;22.20;41.60;;;;;;4987362;28;20036;-65
2022/04/24 00:47:50;;;;;;;3.28;1.65;;;22.10;41.50;;;;;;4987631;28;20030;-63
2022/04/24 00:50:16;;;;;;;1.92;1.40;;;22.10;41.50;;;;;;4991140;28;20093;-63
2022/04/24 00:52:43;;;;;;;1.92;1.33;;;22.10;41.50;;;;;;4990325;28;20064;-63
2022/04/24 00:55:08;;;;;;;2.30;1.50;;;22.10;41.50;;;;;;4988869;28;20117;-61
2022/04/24 00:57:34;;;;;;;2.30;1.35;;;22.10;41.50;;;;;;4989395;28;20191;-63
2022/04/24 01:00:00;;;;;;;2.20;1.58;;;22.10;41.50;;;;;;5018594;28;20706;-63
2022/04/24 01:02:26;;;;;;;2.10;1.50;;;22.10;41.50;;;;;;4987443;28;20062;-62
2022/04/24 01:04:52;;;;;;;2.45;1.90;;;22.10;41.50;;;;;;4989455;28;20112;-62
2022/04/24 01:07:17;;;;;;;2.20;1.45;;;22.10;41.50;;;;;;4989996;28;20419;-62
2022/04/24 01:09:43;;;;;;;2.10;1.50;;;22.10;41.50;;;;;;4988323;28;20049;-63
2022/04/24 01:12:09;;;;;;;3.33;1.42;;;22.10;41.50;;;;;;4985763;28;20029;-63
2022/04/24 01:14:35;;;;;;;1.90;1.40;;;22.10;41.50;;;;;;4987742;28;20071;-65
2022/04/24 01:17:04;;;;;;;1.63;1.15;;;22.10;41.50;;;;;;4987421;28;20029;-61
2022/04/24 01:19:30;;;;;;;1.75;1.27;;;22.10;41.50;;;;;;4991350;28;20033;-63
2022/04/24 01:21:57;;;;;;;1.73;1.30;;;22.10;42.00;;;;;;4987133;28;20029;-63
2022/04/24 01:24:25;;;;;;;2.05;1.40;;;22.00;41.40;;;;;;4989032;28;20486;-65
2022/04/24 01:26:52;;;;;;;2.05;1.48;;;22.10;41.50;;;;;;4988958;28;20064;-64
2022/04/24 01:29:18;;;;;;;2.42;1.40;;;22.10;41.50;;;;;;4989892;28;20029;-63
2022/04/24 01:31:45;;;;;;;2.17;1.40;;;22.00;41.40;;;;;;4989126;28;20057;-63
2022/04/24 01:34:12;;;;;;;2.45;1.60;;;22.00;41.40;;;;;;4983677;28;20478;-65
2022/04/24 01:36:38;;;;;;;1.75;1.30;;;22.00;41.40;;;;;;4987203;28;20094;-65
2022/04/24 01:39:04;;;;;;;2.28;1.45;;;22.00;41.40;;;;;;4993563;28;20742;-63
2022/04/24 01:41:31;;;;;;;1.70;1.40;;;22.00;41.40;;;;;;4994495;28;20029;-64
2022/04/24 01:43:57;;;;;;;2.00;1.40;;;22.00;41.40;;;;;;4992934;28;20532;-63
2022/04/24 01:46:24;;;;;;;2.05;1.58;;;22.00;41.40;;;;;;4988923;28;20036;-65
2022/04/24 01:48:50;;;;;;;1.83;1.40;;;22.00;41.40;;;;;;4992352;28;20541;-63
2022/04/24 01:51:16;;;;;;;2.20;1.40;;;22.00;41.40;;;;;;4989498;28;20032;-63
2022/04/24 01:53:43;;;;;;;2.03;1.40;;;22.00;41.50;;;;;;4991269;28;20656;-62
2022/04/24 01:56:09;;;;;;;2.53;1.40;;;22.00;41.40;;;;;;4991273;28;20117;-63
2022/04/24 01:58:36;;;;;;;2.35;1.50;;;22.00;41.40;;;;;;4993582;28;20112;-65
2022/04/24 02:01:02;;;;;;;1.95;1.50;;;22.00;41.40;;;;;;4989187;28;20049;-63
2022/04/24 02:03:29;;;;;;;1.50;1.20;;;22.00;41.40;;;;;;4992142;28;20150;-63
2022/04/24 02:05:55;;;;;;;1.95;1.30;;;22.00;41.40;;;;;;4993625;28;20034;-62
2022/04/24 02:08:21;;;;;;;1.58;1.15;;;22.00;41.40;;;;;;4990752;28;20087;-63
2022/04/24 02:10:47;;;;;;;2.80;1.40;;;22.00;41.40;;;;;;4992121;28;20056;-64
2022/04/24 02:13:13;;;;;;;2.40;1.40;;;22.00;41.40;;;;;;4994051;28;20045;-61
2022/04/24 02:15:39;;;;;;;2.15;1.58;;;22.00;41.40;;;;;;4987383;28;20125;-64
2022/04/24 02:18:05;;;;;;;1.65;1.30;;;22.00;41.40;;;;;;4991223;28;20088;-63
2022/04/24 02:20:30;;;;;;;2.00;1.50;;;22.00;41.40;;;;;;4992428;28;20033;-65
2022/04/24 02:22:57;;;;;;;1.90;1.13;;;21.90;41.40;;;;;;4990569;28;20036;-65
2022/04/24 02:25:27;;;;;;;1.55;1.30;;;21.90;41.40;;;;;;4991383;28;20025;-64
2022/04/24 02:27:54;;;;;;;2.20;1.45;;;21.90;41.30;;;;;;4991858;28;20108;-64
2022/04/24 02:30:25;;;;;;;2.17;1.42;;;21.90;41.30;;;;;;4991505;28;20378;-61
2022/04/24 02:32:50;;;;;;;1.63;1.20;;;21.90;41.30;;;;;;4991429;28;20506;-63
2022/04/24 02:35:16;;;;;;;1.75;1.30;;;21.90;41.30;;;;;;4990490;28;20037;-61
2022/04/24 02:37:42;;;;;;;1.83;1.38;;;21.90;41.30;;;;;;4992635;28;20072;-62
2022/04/24 02:40:09;;;;;;;2.15;1.50;;;21.90;41.30;;;;;;4989223;28;20021;-63
2022/04/24 02:42:39;;;;;;;1.60;1.30;;;21.90;41.30;;;;;;4993859;28;20033;-62
2022/04/24 02:45:09;;;;;;;2.00;1.50;;;21.90;41.30;;;;;;4991701;28;20567;-64
2022/04/24 02:47:38;;;;;;;2.17;1.58;;;21.90;41.30;;;;;;4989524;28;20156;-65
2022/04/24 02:50:04;;;;;;;2.08;1.40;;;21.90;41.40;;;;;;4988160;28;20589;-63
2022/04/24 02:52:29;;;;;;;1.55;1.10;;;21.90;41.30;;;;;;4989593;28;20141;-63
2022/04/24 02:54:55;;;;;;;1.88;1.33;;;21.90;41.30;;;;;;4988897;28;20168;-65
2022/04/24 02:57:21;;;;;;;1.75;1.35;;;21.90;41.30;;;;;;4991463;28;20116;-65
2022/04/24 02:59:50;;;;;;;2.28;1.50;;;21.90;41.30;;;;;;4987713;28;21245;-64
2022/04/24 03:02:16;;;;;;;1.80;1.40;;;21.90;41.30;;;;;;4990192;28;20038;-64
2022/04/24 03:04:43;;;;;;;1.98;1.48;;;21.90;41.30;;;;;;4992775;28;20465;-65
2022/04/24 03:07:08;;;;;;;2.05;1.40;;;21.90;41.30;;;;;;4992288;28;20056;-64
2022/04/24 03:09:34;;;;;;;1.70;1.30;;;21.90;41.30;;;;;;4992223;28;20030;-65
2022/04/24 03:11:59;;;;;;;2.13;1.42;;;21.90;41.30;;;;;;4986767;28;20587;-65
2022/04/24 03:14:25;;;;;;;1.70;1.30;;;21.90;41.30;;;;;;4994038;28;20057;-67
2022/04/24 03:16:51;;;;;;;1.60;1.20;;;21.90;41.30;;;;;;4989160;28;20485;-64
2022/04/24 03:19:17;;;;;;;1.90;1.45;;;21.90;41.30;;;;;;4991897;28;20026;-64
2022/04/24 03:21:43;;;;;;;1.40;1.10;;;21.90;41.30;;;;;;4989586;28;20044;-65
2022/04/24 03:24:08;;;;;;;2.60;1.35;;;21.80;41.30;;;;;;4993325;28;20054;-64
2022/04/24 03:26:34;;;;;;;1.88;1.30;;;21.80;41.30;;;;;;4992448;28;20037;-65
2022/04/24 03:29:00;;;;;;;1.60;1.38;;;21.80;41.30;;;;;;4991571;28;20092;-64
2022/04/24 03:31:25;;;;;;;1.67;1.33;;;21.80;41.30;;;;;;4989614;28;20137;-64
2022/04/24 03:33:52;;;;;;;1.60;1.25;;;21.80;41.30;;;;;;4988170;28;20033;-64
2022/04/24 03:36:18;;;;;;;1.70;1.30;;;21.80;41.30;;;;;;4988807;28;20097;-69
2022/04/24 03:38:44;;;;;;;2.15;1.40;;;21.80;41.30;;;;;;4993643;28;20510;-64
2022/04/24 03:41:10;;;;;;;1.60;1.20;;;21.80;41.30;;;;;;4990760;28;20116;-63
2022/04/24 03:43:35;;;;;;;2.10;1.20;;;21.80;41.30;;;;;;4990804;28;20116;-63
2022/04/24 03:46:01;;;;;;;1.38;1.17;;;21.80;41.30;;;;;;4992376;28;20444;-64
2022/04/24 03:48:27;;;;;;;1.90;1.40;;;21.80;41.30;;;;;;4987213;28;20057;-64
2022/04/24 03:50:53;;;;;;;2.22;1.38;;;21.80;41.30;;;;;;4995149;28;20355;-69
2022/04/24 03:53:18;;;;;;;1.98;1.40;;;21.80;41.30;;;;;;4995618;28;20041;-64
2022/04/24 03:55:45;;;;;;;1.50;1.27;;;21.80;41.30;;;;;;4993988;28;20034;-63
2022/04/24 03:58:11;;;;;;;1.45;1.10;;;21.80;41.30;;;;;;4995971;28;20045;-66
2022/04/24 04:00:37;;;;;;;1.92;1.33;;;21.80;41.30;;;;;;4990694;28;20042;-63
2022/04/24 04:03:02;;;;;;;1.60;1.30;;;21.80;41.30;;;;;;4995516;28;20056;-63
2022/04/24 04:05:29;;;;;;;1.80;1.30;;;21.80;41.30;;;;;;4991435;28;20141;-64
2022/04/24 04:07:55;;;;;;;1.95;1.30;;;21.80;41.30;;;;;;4997017;28;20053;-63
2022/04/24 04:10:22;;;;;;;1.85;1.40;;;21.70;41.30;;;;;;4993025;28;20025;-63
2022/04/24 04:12:48;;;;;;;1.77;1.40;;;21.80;41.40;;;;;;4991435;28;20030;-67
2022/04/24 04:15:14;;;;;;;1.60;1.10;;;21.80;41.40;;;;;;4988286;28;20060;-65
2022/04/24 04:17:40;;;;;;;1.90;1.38;;;21.80;41.30;;;;;;4995590;28;20107;-64
2022/04/24 04:20:11;;;;;;;1.92;1.40;;;21.80;41.30;;;;;;4994295;28;20033;-64
2022/04/24 04:22:48;;;;;;;1.60;1.25;;;21.80;41.30;;;;;;4993603;28;20069;-64
2022/04/24 04:25:14;;;;;;;1.88;1.30;;;21.70;41.30;;;;;;4991685;28;20487;-63
2022/04/24 04:27:40;;;;;;;1.65;1.30;;;21.80;41.40;;;;;;4995452;28;20026;-68
2022/04/24 04:30:06;;;;;;;2.00;1.35;;;21.80;41.30;;;;;;4987492;28;20041;-64
2022/04/24 04:32:33;;;;;;;2.65;1.30;;;21.70;41.30;;;;;;4986517;28;22039;-68
2022/04/24 04:34:59;;;;;;;1.75;1.38;;;21.70;41.30;;;;;;4994194;28;20053;-63
2022/04/24 04:37:24;;;;;;;2.10;1.50;;;21.70;41.30;;;;;;4994533;28;20141;-64
2022/04/24 04:39:50;;;;;;;2.05;1.50;;;21.70;41.30;;;;;;4994164;28;20084;-63
2022/04/24 04:42:16;;;;;;;1.90;1.40;;;21.70;41.30;;;;;;4990540;28;20026;-68
2022/04/24 04:44:43;;;;;;;2.08;1.40;;;21.70;41.30;;;;;;4993691;28;20029;-64
2022/04/24 04:47:08;;;;;;;2.38;1.20;;;21.70;41.30;;;;;;4990898;28;20038;-66
2022/04/24 04:49:34;;;;;;;1.90;1.50;;;21.70;41.30;;;;;;4993932;28;20127;-62
2022/04/24 04:51:59;;;;;;;2.00;1.40;;;21.70;41.30;;;;;;4987812;28;20535;-63
2022/04/24 04:54:25;;;;;;;2.00;1.40;;;21.70;41.30;;;;;;4990296;28;20018;-66
2022/04/24 04:56:51;;;;;;;1.58;1.23;;;21.70;41.40;;;;;;4990497;28;20037;-62
2022/04/24 04:59:16;;;;;;;1.60;1.20;;;21.70;41.30;;;;;;4993206;28;20037;-63
2022/04/24 05:01:42;;;;;;;2.20;1.30;;;21.70;41.30;;;;;;4987737;28;20092;-64
2022/04/24 05:04:07;;;;;;;1.90;1.30;;;21.70;41.30;;;;;;4994614;28;20391;-64
2022/04/24 05:06:33;;;;;;;1.70;1.30;;;21.70;41.30;;;;;;4989530;28;20054;-64
2022/04/24 05:08:59;;;;;;;1.60;1.20;;;21.70;41.30;;;;;;4995640;28;20022;-63
2022/04/24 05:11:24;;;;;;;2.15;1.48;;;21.70;41.30;;;;;;4989865;28;20080;-63
2022/04/24 05:13:50;;;;;;;2.10;1.40;;;21.70;41.30;;;;;;4992984;28;20030;-68
2022/04/24 05:16:15;;;;;;;1.90;1.40;;;21.70;41.30;;;;;;4989513;28;20029;-63
2022/04/24 05:18:41;;;;;;;1.90;1.40;;;21.70;41.30;;;;;;4990941;28;20040;-63
2022/04/24 05:21:07;;;;;;;1.40;1.20;;;21.70;41.30;;;;;;4991444;28;20029;-63
2022/04/24 05:23:32;;;;;;;1.88;1.40;;;21.70;41.30;;;;;;4995219;28;20077;-63
2022/04/24 05:25:58;;;;;;;1.58;1.20;;;21.70;41.80;;;;;;4991333;28;20121;-65
2022/04/24 05:28:23;;;;;;;1.85;1.40;;;21.70;41.80;;;;;;4992756;28;20585;-64
2022/04/24 05:30:49;;;;;;;1.73;1.30;;;21.70;41.30;;;;;;4989545;28;20088;-67
2022/04/24 05:33:18;;;;;;;2.47;1.50;;;21.70;41.30;;;;;;4993543;28;20030;-68
2022/04/24 05:35:44;;;;;;;1.90;1.50;;;21.70;41.30;;;;;;4994455;28;20028;-68
2022/04/24 05:38:10;;;;;;;2.30;1.30;;;21.70;41.40;;;;;;4993164;28;20087;-69
2022/04/24 05:40:35;;;;;;;1.67;1.30;;;21.70;41.30;;;;;;4993414;28;20033;-66
2022/04/24 05:43:01;;;;;;;1.92;1.40;;;21.70;41.30;;;;;;4993652;28;20049;-63
2022/04/24 05:45:27;;;;;;;1.83;1.40;;;21.70;41.40;;;;;;4991913;28;20026;-64
2022/04/24 05:47:56;;;;;;;1.80;1.35;;;21.60;41.30;;;;;;4988429;28;20026;-68
2022/04/24 05:50:23;;;;;;;1.73;1.38;;;21.60;41.80;;;;;;4995921;28;20080;-63
2022/04/24 05:52:49;;;;;;;1.80;1.40;;;21.70;41.30;;;;;;4994640;28;20648;-61
2022/04/24 05:55:15;;;;;;;1.88;1.25;;;21.70;41.40;;;;;;4994541;28;20040;-63
2022/04/24 05:57:41;;;;;;;1.80;1.40;;;21.60;41.30;;;;;;4992222;28;20037;-68
2022/04/24 06:00:08;;;;;;;1.73;1.30;;;21.70;41.40;;;;;;4990291;28;20078;-63
2022/04/24 06:02:34;;;;;;;1.90;1.40;;;21.60;41.30;;;;;;4990695;28;20505;-64
2022/04/24 06:04:59;;;;;;;1.45;1.20;;;21.60;41.30;;;;;;4992539;28;20112;-64
2022/04/24 06:07:25;;;;;;;2.05;1.40;;;21.60;41.30;;;;;;4990659;28;20030;-64
2022/04/24 06:09:51;;;;;;;1.83;1.35;;;21.60;41.40;;;;;;4988409;28;20092;-66
2022/04/24 06:12:17;;;;;;;1.83;1.40;;;21.60;41.80;;;;;;4992353;28;20079;-66
2022/04/24 06:14:43;;;;;;;2.08;1.42;;;21.60;41.30;;;;;;4991122;28;20040;-64
2022/04/24 06:17:08;;;;;;;2.22;1.40;;;21.60;41.30;;;;;;4989512;28;20034;-64
2022/04/24 06:19:34;;;;;;;1.92;1.40;;;21.60;41.30;;;;;;4986819;28;20128;-67
2022/04/24 06:22:00;;;;;;;2.40;1.40;;;21.60;41.30;;;;;;4990580;28;20420;-62
2022/04/24 06:24:26;;;;;;;1.80;1.40;;;21.60;41.30;;;;;;4993131;28;20022;-64
2022/04/24 06:26:52;;;;;;;1.80;1.30;;;21.60;41.30;;;;;;4992671;28;20048;-62
2022/04/24 06:29:17;;;;;;;2.10;1.60;;;21.60;41.30;;;;;;4992441;28;20079;-63
2022/04/24 06:31:43;;;;;;;1.88;1.42;;;21.60;41.40;;;;;;4985975;28;20444;-63
2022/04/24 06:34:10;;;;;;;1.73;1.30;;;21.60;41.30;;;;;;4991416;28;20117;-62
2022/04/24 06:36:36;;;;;;;1.77;1.40;;;21.60;41.30;;;;;;4991891;28;20088;-63
2022/04/24 06:39:01;;;;;;;1.70;1.35;;;21.60;41.30;;;;;;4993191;28;20034;-61
2022/04/24 06:41:27;;;;;;;1.60;1.38;;;21.60;41.30;;;;;;4994782;28;20105;-63
2022/04/24 06:43:53;;;;;;;1.60;1.33;;;21.60;41.30;;;;;;4994539;28;21141;-64
2022/04/24 06:46:19;;;;;;;1.73;1.40;;;21.60;41.40;;;;;;4988917;28;20065;-63
2022/04/24 06:48:45;;;;;;;2.17;1.50;;;21.60;41.40;;;;;;4992774;28;20477;-63
2022/04/24 06:51:10;;;;;;;2.22;1.60;;;21.60;41.40;;;;;;4992730;28;20030;-63
2022/04/24 06:53:38;;;;;;;2.35;1.45;;;21.60;41.30;;;;;;4997032;28;20034;-60
2022/04/24 06:56:04;;;;;;;1.83;1.50;;;21.60;41.40;;;;;;4993697;28;20498;-63
2022/04/24 06:58:30;;;;;;;2.63;1.50;;;21.60;41.40;;;;;;4989725;28;20191;-60
2022/04/24 07:00:56;;;;;;;2.10;1.40;;;21.60;41.30;;;;;;4991025;28;20104;-60
2022/04/24 07:03:22;;;;;;;1.60;1.30;;;21.60;41.40;;;;;;4992275;28;20060;-63
2022/04/24 07:05:49;;;;;;;2.00;1.50;;;21.60;41.30;;;;;;4991525;28;20026;-63
2022/04/24 07:08:14;;;;;;;2.10;1.50;;;21.60;41.40;;;;;;4991165;28;20030;-63
2022/04/24 07:10:40;;;;;;;1.60;1.30;;;21.60;41.40;;;;;;4995347;28;20528;-64
2022/04/24 07:13:06;;;;;;;2.00;1.48;;;21.50;41.30;;;;;;4993460;28;20056;-66
2022/04/24 07:15:35;;;;;;;1.80;1.30;;;21.60;41.40;;;;;;4990068;28;20236;-63
2022/04/24 07:18:01;;;;;;;1.63;1.30;;;21.50;41.30;;;;;;4991777;28;20080;-62
2022/04/24 07:20:29;;;;;;;1.50;1.20;;;21.60;41.40;;;;;;4994414;28;20082;-63
2022/04/24 07:23:01;;;;;;;1.55;1.20;;;21.50;41.40;;;;;;4996162;28;20046;-62
2022/04/24 07:25:39;;;;;;;2.10;1.30;;;21.50;41.40;;;;;;4996233;28;20026;-63
2022/04/24 07:28:05;;;;;;;2.03;1.38;;;21.50;41.40;;;;;;4998743;28;20419;-63
2022/04/24 07:30:30;;;;;;;1.70;1.40;;;21.50;41.40;;;;;;4993255;28;20180;-61
2022/04/24 07:32:57;;;;;;;2.10;1.60;;;21.50;41.40;;;;;;4991605;28;20520;-63
2022/04/24 07:35:31;;;;;;;2.00;1.40;;;21.50;41.40;;;;;;4993023;28;20061;-64
2022/04/24 07:37:57;;;;;;;2.10;1.60;;;21.60;41.40;;;;;;4996262;28;20545;-63
2022/04/24 07:40:28;;;;;;;2.20;1.35;;;21.50;41.40;;;;;;4993785;28;20034;-63
2022/04/24 07:42:58;;;;;;;1.55;1.20;;;21.50;41.40;;;;;;4997047;28;20021;-62
2022/04/24 07:45:25;;;;;;;1.73;1.30;;;21.50;41.40;;;;;;4995459;28;20018;-64
2022/04/24 07:47:53;;;;;;;1.77;1.35;;;21.50;41.80;;;;;;4996139;28;20025;-65
2022/04/24 07:50:21;;;;;;;2.30;1.60;;;21.50;41.40;;;;;;4997067;28;20026;-63
2022/04/24 07:52:47;;;;;;;2.10;1.48;;;21.50;41.40;;;;;;4993796;28;20147;-61
2022/04/24 07:55:17;;;;;;;1.88;1.30;;;21.50;41.40;;;;;;4996060;28;20038;-66
2022/04/24 07:57:43;;;;;;;1.70;1.30;;;21.50;41.40;;;;;;4996754;28;20040;-66
2022/04/24 08:00:10;;;;;;;1.58;1.20;;;21.50;41.40;;;;;;4993981;28;20120;-62
2022/04/24 08:02:57;;;;;;;2.35;1.38;;;21.50;41.40;;;;;;4989698;28;20037;-62
2022/04/24 08:05:24;;;;;;;2.03;1.45;;;21.50;41.40;;;;;;5005251;28;20022;-64
2022/04/24 08:07:51;;;;;;;1.60;1.30;;;21.50;41.40;;;;;;4994138;28;20096;-62
2022/04/24 08:10:17;;;;;;;2.88;1.50;;;21.50;41.40;;;;;;4993501;28;20021;-63
2022/04/24 08:12:43;;;;;;;2.25;1.35;;;21.50;41.40;;;;;;4992944;28;20040;-62
2022/04/24 08:15:09;;;;;;;1.88;1.30;;;21.50;41.40;;;;;;4991309;28;20278;-65
2022/04/24 08:17:34;;;;;;;2.17;1.50;;;21.50;41.40;;;;;;4990283;28;20824;-62
2022/04/24 08:20:01;;;;;;;2.17;1.48;;;21.50;41.40;;;;;;4991827;28;20030;-64
2022/04/24 08:22:35;;;;;;;1.70;1.20;;;21.50;41.40;;;;;;4993051;28;20040;-65
2022/04/24 08:25:00;;;;;;;1.77;1.40;;;21.50;41.40;;;;;;4991938;28;20072;-64
2022/04/24 08:27:26;;;;;;;2.08;1.30;;;21.50;41.50;;;;;;4993739;28;20033;-62
2022/04/24 08:29:51;;;;;;;1.70;1.40;;;21.50;41.40;;;;;;4992869;28;20081;-64
2022/04/24 08:32:20;;;;;;;2.03;1.40;;;21.50;41.50;;;;;;4988506;28;20046;-62
2022/04/24 08:34:45;;;;;;;1.90;1.40;;;21.50;41.40;;;;;;4992052;28;20175;-64
2022/04/24 08:37:11;;;;;;;1.73;1.40;;;21.50;41.50;;;;;;4994202;28;20803;-65
2022/04/24 08:39:36;;;;;;;1.85;1.33;;;21.50;41.40;;;;;;4991317;28;20037;-63
2022/04/24 08:42:04;;;;;;;2.50;1.50;;;21.50;41.50;;;;;;4993923;28;20029;-63
2022/04/24 08:44:32;;;;;;;1.98;1.50;;;21.50;41.50;;;;;;4992136;28;20034;-63
2022/04/24 08:46:58;;;;;;;1.83;1.35;;;21.50;41.50;;;;;;4989427;28;20669;-60
2022/04/24 08:49:25;;;;;;;2.90;1.50;;;21.50;41.50;;;;;;4992967;28;20117;-63
2022/04/24 08:51:51;;;;;;;2.50;1.50;;;21.50;41.50;;;;;;4990980;28;20022;-66
2022/04/24 08:54:18;;;;;;;2.22;1.38;;;21.50;41.50;;;;;;4994378;28;20045;-63
2022/04/24 08:56:43;;;;;;;2.72;1.50;;;21.50;42.00;;;;;;4992680;28;20029;-63
2022/04/24 08:59:09;;;;;;;6.38;1.70;;;21.50;41.50;;;;;;4991240;28;20065;-61
2022/04/24 09:01:43;;;;;;;3.10;1.60;;;21.50;42.00;;;;;;4988031;28;20049;-63
2022/04/24 09:04:09;;;;;;;3.75;1.65;;;21.50;41.50;;;;;;4992194;28;20029;-66
2022/04/24 09:06:34;;;;;;;3.75;1.73;;;21.50;41.50;;;;;;4988922;28;20108;-62
2022/04/24 09:09:05;;;;;;;3.08;1.80;;;21.50;41.50;;;;;;4992291;28;20062;-63
2022/04/24 09:11:32;;;;;;;3.42;1.80;;;21.40;42.00;;;;;;4992189;28;20112;-63
2022/04/24 09:14:18;;;;;;;3.55;1.83;;;21.50;41.50;;;;;;4992940;28;20095;-61
2022/04/24 09:16:53;;;;;;;3.10;1.63;;;21.50;41.50;;;;;;4988603;28;20370;-63
2022/04/24 09:19:20;;;;;;;3.78;1.67;;;21.50;41.50;;;;;;4992208;28;20442;-64
2022/04/24 09:21:49;;;;;;;2.90;1.77;;;21.50;41.50;;;;;;4991366;28;20127;-65
2022/04/24 09:24:15;;;;;;;4.38;2.28;;;21.50;41.50;;;;;;4992514;28;20473;-62
2022/04/24 09:26:54;;;;;;;4.35;1.70;;;21.50;41.50;;;;;;4992959;28;20056;-63
2022/04/24 09:29:23;;;;;;;3.40;1.80;;;21.50;41.60;;;;;;4989800;28;20030;-63
2022/04/24 09:31:50;;;;;;;3.28;1.73;;;21.50;41.60;;;;;;4987688;28;20064;-62
2022/04/24 09:34:20;;;;;;;3.65;1.95;;;21.50;41.60;;;;;;4992222;28;20050;-63
2022/04/24 09:36:47;;;;;;;2.97;1.80;;;21.50;41.60;;;;;;4986569;28;20572;-62
2022/04/24 09:39:13;;;;;;;3.42;2.13;;;21.50;41.60;;;;;;4993516;28;20129;-67
2022/04/24 09:41:39;;;;;;;3.05;1.83;;;21.50;41.60;;;;;;4988675;28;20111;-63
2022/04/24 09:44:15;;;;;;;3.97;1.80;;;21.50;41.50;;;;;;4982400;28;20060;-64
2022/04/24 09:46:41;;;;;;;3.33;1.98;;;21.50;41.50;;;;;;4986536;28;20470;-64
2022/04/24 09:49:09;;;;;;;4.18;1.90;;;21.50;41.60;;;;;;4993603;28;20361;-63
2022/04/24 09:51:43;;;;;;;3.15;1.90;;;21.50;41.60;;;;;;4990678;28;20049;-64
2022/04/24 09:54:09;;;;;;;3.97;1.80;;;21.50;41.50;;;;;;4991705;28;20103;-64
2022/04/24 09:56:35;;;;;;;3.67;1.83;;;21.50;41.60;;;;;;4992660;28;20042;-61
2022/04/24 09:59:01;;;;;;;3.20;1.88;;;21.50;41.60;;;;;;4991488;28;20075;-64
2022/04/24 10:01:27;;;;;;;3.55;2.03;;;21.50;41.60;;;;;;4986426;28;20549;-62
2022/04/24 10:03:54;;;;;;;4.65;2.00;;;21.50;41.60;;;;;;4994022;28;20046;-63
2022/04/24 10:06:22;;;;;;;3.85;1.70;;;21.50;41.60;;;;;;4991358;28;20040;-63
2022/04/24 10:08:52;;;;;;;4.43;1.90;;;21.50;41.60;;;;;;4995277;28;20497;-62
2022/04/24 10:11:18;;;;;;;5.55;1.70;;;21.50;41.60;;;;;;4991726;28;20137;-62
2022/04/24 10:13:50;;;;;;;3.17;1.80;;;21.50;41.60;;;;;;4990274;28;20100;-66
2022/04/24 10:16:37;;;;;;;4.15;1.98;;;21.50;41.60;;;;;;4988393;28;20437;-63
2022/04/24 10:19:38;;;;;;;4.47;1.90;;;21.50;41.70;;;;;;4964328;28;20518;-66
2022/04/24 10:22:10;;;;;;;3.95;1.85;;;21.50;41.70;;;;;;4990727;28;20034;-67
2022/04/24 10:24:41;;;;;;;3.65;2.00;;;21.50;41.70;;;;;;4994013;28;20574;-63
2022/04/24 10:27:07;;;;;;;5.78;2.13;;;21.50;41.70;;;;;;4993828;28;20026;-68
2022/04/24 10:29:33;;;;;;;4.47;2.22;;;21.50;41.70;;;;;;4990549;28;20111;-67
2022/04/24 10:31:59;;;;;;;4.53;2.03;;;21.50;41.80;;;;;;4989541;28;20487;-60
2022/04/24 10:34:26;;;;;;;4.45;2.33;;;21.50;41.80;;;;;;4994711;28;20046;-60
2022/04/24 10:37:04;;;;;;;3.55;1.80;;;21.50;41.90;;;;;;4991942;28;20026;-64
2022/04/24 10:39:33;;;;;;;4.88;2.15;;;21.50;41.90;;;;;;4992602;28;20103;-63
2022/04/24 10:42:14;;;;;;;3.47;2.00;;;21.50;41.90;;;;;;4993608;28;20532;-64
2022/04/24 10:44:55;;;;;;;3.90;2.00;;;21.50;42.00;;;;;;4991292;28;20092;-64
2022/04/24 10:47:21;;;;;;;4.40;1.85;;;21.50;42.00;;;;;;4986389;28;20088;-62
2022/04/24 10:49:46;;;;;;;2.92;1.63;;;21.50;42.00;;;;;;4992248;28;20030;-68
2022/04/24 10:52:12;;;;;;;4.07;2.10;;;21.50;42.00;;;;;;4990993;28;20026;-63
2022/04/24 10:54:39;;;;;;;5.07;2.03;;;21.50;42.00;;;;;;4993948;28;20041;-62
2022/04/24 10:57:22;;;;;;;4.40;1.90;;;21.50;42.00;;;;;;4997167;28;20108;-63
2022/04/24 10:59:52;;;;;;;4.28;1.95;;;21.50;42.00;;;;;;4995541;28;20169;-63
2022/04/24 11:02:30;;;;;;;3.63;1.73;;;21.50;42.00;;;;;;4994458;28;20038;-67
2022/04/24 11:05:06;;;;;;;4.00;1.80;;;21.50;42.00;;;;;;4998090;28;20723;-63
2022/04/24 11:07:33;;;;;;;4.63;1.80;;;21.50;42.00;;;;;;4997598;28;20358;-64
2022/04/24 11:10:10;;;;;;;3.65;1.90;;;21.50;42.00;;;;;;4996480;28;20486;-67
2022/04/24 11:12:37;;;;;;;3.85;1.90;;;21.50;42.00;;;;;;4998020;28;20046;-67
2022/04/24 11:15:12;;;;;;;3.75;2.28;;;21.50;42.00;;;;;;4994569;28;20462;-62
2022/04/24 11:17:39;;;;;;;3.03;1.60;;;21.50;42.00;;;;;;4994929;28;20201;-60
2022/04/24 11:20:11;;;;;;;4.13;1.95;;;21.50;42.00;;;;;;4996195;28;20030;-60
2022/04/24 11:22:51;;;;;;;4.10;1.85;;;21.50;42.00;;;;;;4996586;28;20025;-63
2022/04/24 11:25:19;;;;;;;2.95;1.50;;;21.50;42.10;;;;;;4990599;28;20457;-63
2022/04/24 11:27:49;;;;;;;2.40;1.48;;;21.50;42.00;;;;;;4997681;28;20429;-63
2022/04/24 11:30:16;;;;;;;3.70;1.83;;;21.50;42.00;;;;;;4992868;28;20753;-61
2022/04/24 11:32:53;;;;;;;3.25;1.70;;;21.50;42.00;;;;;;4996499;28;20480;-62
2022/04/24 11:35:19;;;;;;;3.67;1.80;;;21.50;42.00;;;;;;4998794;28;20033;-66
2022/04/24 11:37:44;;;;;;;4.13;1.90;;;21.50;42.00;;;;;;4995228;28;20048;-63
2022/04/24 11:40:10;;;;;;;2.95;1.33;;;21.50;42.00;;;;;;4994636;28;20056;-62
2022/04/24 11:42:36;;;;;;;4.35;1.90;;;21.50;42.00;;;;;;4997903;28;20073;-60
2022/04/24 11:50:51;;;;;;;4.00;1.90;;;21.50;42.00;;;;;;4995884;28;20118;-62
2022/04/24 11:53:22;;;;;;;3.33;1.67;;;21.50;42.00;;;;;;4998683;28;20105;-62
2022/04/24 11:56:01;;;;;;;3.15;1.50;;;21.50;42.00;;;;;;4993129;28;20030;-63
2022/04/24 11:58:34;;;;;;;2.53;1.50;;;21.50;42.00;;;;;;4997180;28;20096;-62
2022/04/24 12:01:02;;;;;;;3.38;1.60;;;21.50;42.00;;;;;;4991103;28;20045;-61
2022/04/24 12:03:32;;;;;;;3.42;1.65;;;21.50;42.00;;;;;;4996445;28;20113;-61
2022/04/24 12:06:03;;;;;;;3.53;1.40;;;21.50;42.00;;;;;;4995150;28;20108;-63
2022/04/24 12:08:52;;;;;;;2.88;1.50;;;21.50;42.00;;;;;;4994167;28;20509;-65
2022/04/24 12:11:28;;;;;;;3.05;1.60;;;21.50;42.00;;;;;;4994517;28;20421;-59
2022/04/24 12:14:15;;;;;;;2.67;1.42;;;21.50;42.00;;;;;;4996506;28;20034;-62
2022/04/24 12:16:47;;;;;;;3.35;1.60;;;21.50;42.00;;;;;;4992795;28;20037;-62
2022/04/24 12:19:18;;;;;;;2.28;1.35;;;21.50;42.00;;;;;;4993546;28;20211;-63
2022/04/24 12:21:49;;;;;;;2.95;1.40;;;21.50;42.00;;;;;;4994279;28;20113;-63
2022/04/24 12:24:15;;;;;;;3.42;1.48;;;21.50;42.00;;;;;;4995707;28;20056;-62
2022/04/24 12:26:49;;;;;;;2.75;1.23;;;21.50;42.00;;;;;;4990220;28;20029;-63
2022/04/24 12:29:16;;;;;;;3.00;1.30;;;21.50;42.00;;;;;;4996514;28;20029;-63
2022/04/24 12:31:43;;;;;;;4.25;1.50;;;21.50;42.00;;;;;;4989716;28;20074;-67
2022/04/24 12:34:09;;;;;;;3.35;1.45;;;21.50;42.00;;;;;;4995359;28;20435;-61
2022/04/24 12:36:34;;;;;;;2.50;1.45;;;21.50;42.00;;;;;;4993799;28;20116;-67
2022/04/24 12:39:06;;;;;;;2.63;1.48;;;21.50;42.00;;;;;;4998695;28;20414;-64
2022/04/24 12:41:36;;;;;;;2.42;1.20;;;21.50;42.00;;;;;;4991466;28;20025;-62
2022/04/24 12:44:04;;;;;;;2.40;1.30;;;21.50;42.00;;;;;;4995392;28;20061;-67
2022/04/24 12:46:30;;;;;;;2.80;1.27;;;21.50;42.00;;;;;;4985802;28;20089;-65
2022/04/24 12:48:57;;;;;;;2.67;1.38;;;21.50;42.00;;;;;;4989415;28;20030;-68
2022/04/24 12:51:24;;;;;;;2.22;1.30;;;21.50;42.00;;;;;;4993257;28;20088;-63
2022/04/24 12:53:54;;;;;;;2.30;1.20;;;21.50;42.00;;;;;;4995841;28;20053;-66
2022/04/24 12:56:20;;;;;;;3.00;1.20;;;21.50;42.00;;;;;;4991573;28;20843;-67